Brevik Bridge — VRHY7 — position and weather

sailwx.info

Track history (hours):
 
Tides and Currents Weather Stations Pressure Air Temp Water Temp Dewpoint Dewpoint Depression Visibility Wind Speed Wind Dir Waves Ship Positions

Brevik Bridge

Last reported at 2017-Mar-25 09:33 UTC. Time now 2017-Mar-30 04:47 UTC.
Position N 38°47' E 009°34'.

Length 268 m; draft 7.9 m.

Type: Ship (hazmat cat B). MMSI: 477866200.

Date/timePositionNaut miles runAvg speedWind from/ knotsBaromVisibWave heightAir tempDewpointWater temp
2017-Mar-25 09:33N 38°47' E 009°34'1413.7
2017-Mar-25 08:33N 38°44' E 009°17'1413.6
2017-Mar-25 07:32N 38°41' E 008°59'1313.7
2017-Mar-25 06:33N 38°38' E 008°43'66913.9
2017-Mar-23 06:31N 36°04' W 004°57'1616.5
2017-Mar-23 05:33N 36°01' W 005°16'1716.6
2017-Mar-23 04:33N 35°55' W 005°35'1514.9
2017-Mar-23 03:33N 35°54' W 005°54'  
2017-Mar-17 04:32N 09°59' W 017°59'2612.4
2017-Mar-17 02:27N 09°39' W 017°44'2512.8
2017-Mar-17 00:33N 09°20' W 017°28'2913.7
2017-Mar-16 22:25N 08°56' W 017°11'1213.8
2017-Mar-16 21:33N 08°47' W 017°03'1413.8
2017-Mar-16 20:33N 08°36' W 016°55'1413.6
2017-Mar-16 19:33N 08°25' W 016°46'4213.9
2017-Mar-16 16:33N 07°52' W 016°21'3213.6
2017-Mar-16 14:13N 07°29' W 015°59'1014.0
2017-Mar-16 13:28N 07°19' W 015°56'5913.9
2017-Mar-16 09:12N 06°32' W 015°19'7713.4
2017-Mar-16 03:29N 05°32' W 014°31'  
Track history (hours):
 
Tides and Currents Weather Stations Pressure Air Temp Water Temp Dewpoint Dewpoint Depression Visibility Wind Speed Wind Dir Waves Ship Positions

Brevik Bridge

Last reported at 2017-Mar-25 09:33 UTC. Time now 2017-Mar-30 04:47 UTC.
Position N 38°47' E 009°34'.

Length 268 m; draft 7.9 m.

Type: Ship (hazmat cat B). MMSI: 477866200.

Date/timePositionNaut miles runAvg speedWind from/ knotsBaromVisibWave heightAir tempDewpointWater temp
2017-Mar-25 09:33N 38°47' E 009°34'1413.7
2017-Mar-25 08:33N 38°44' E 009°17'1413.6
2017-Mar-25 07:32N 38°41' E 008°59'1313.7
2017-Mar-25 06:33N 38°38' E 008°43'66913.9
2017-Mar-23 06:31N 36°04' W 004°57'1616.5
2017-Mar-23 05:33N 36°01' W 005°16'1716.6
2017-Mar-23 04:33N 35°55' W 005°35'1514.9
2017-Mar-23 03:33N 35°54' W 005°54'  
2017-Mar-17 04:32N 09°59' W 017°59'2612.4
2017-Mar-17 02:27N 09°39' W 017°44'2512.8
2017-Mar-17 00:33N 09°20' W 017°28'2913.7
2017-Mar-16 22:25N 08°56' W 017°11'1213.8
2017-Mar-16 21:33N 08°47' W 017°03'1413.8
2017-Mar-16 20:33N 08°36' W 016°55'1413.6
2017-Mar-16 19:33N 08°25' W 016°46'4213.9
2017-Mar-16 16:33N 07°52' W 016°21'3213.6
2017-Mar-16 14:13N 07°29' W 015°59'1014.0
2017-Mar-16 13:28N 07°19' W 015°56'5913.9
2017-Mar-16 09:12N 06°32' W 015°19'7713.4
2017-Mar-16 03:29N 05°32' W 014°31'  

Dump ship's entire track history